Time;durP1;ratioP1;P1;durP2;ratioP2;P2;SDS_P1;SDS_P2;PMS_P1;PMS_P2;Temp;Humidity;BMP_temperature;BMP_pressure;BME280_temperature;BME280_humidity;BME280_pressure;Samples;Min_cycle;Max_cycle;Signal;HPM_P1;HPM_P2
2022/09/24 00:02:21;;;;;;;2.22;2.03;;;;;;;;;;10278391;28;20061;-66
2022/09/24 00:07:19;;;;;;;2.50;2.20;;;;;;;;;;10284727;28;20065;-66
2022/09/24 00:12:22;;;;;;;2.60;2.03;;;;;;;;;;10286109;28;20087;-66
2022/09/24 00:17:21;;;;;;;3.40;2.28;;;;;;;;;;10288241;28;20467;-66
2022/09/24 00:22:19;;;;;;;6.38;2.65;;;;;;;;;;10299187;28;20072;-66
2022/09/24 00:27:17;;;;;;;4.35;2.30;;;;;;;;;;10283870;28;20442;-66
2022/09/24 00:32:17;;;;;;;2.85;2.35;;;;;;;;;;10284421;28;20068;-65
2022/09/24 00:37:15;;;;;;;2.25;2.05;;;;;;;;;;10283191;28;20072;-65
2022/09/24 00:42:14;;;;;;;2.67;2.40;;;;;;;;;;10301815;28;20073;-66
2022/09/24 00:47:14;;;;;;;2.33;2.13;;;;;;;;;;10300314;28;20080;-66
2022/09/24 00:52:13;;;;;;;3.20;2.78;;;;;;;;;;10284542;28;20099;-66
2022/09/24 00:57:12;;;;;;;2.55;2.28;;;;;;;;;;10295436;28;20065;-66
2022/09/24 01:02:10;;;;;;;2.83;2.50;;;;;;;;;;10291057;28;20075;-66
2022/09/24 01:07:10;;;;;;;3.83;3.00;;;;;;;;;;10291552;28;20072;-65
2022/09/24 01:12:14;;;;;;;3.30;2.97;;;;;;;;;;10283620;28;20070;-66
2022/09/24 01:17:18;;;;;;;3.40;2.97;;;;;;;;;;10294353;28;20475;-66
2022/09/24 01:22:20;;;;;;;3.47;3.17;;;;;;;;;;10284599;28;20518;-65
2022/09/24 01:27:22;;;;;;;6.97;3.00;;;;;;;;;;10285931;28;20092;-66
2022/09/24 01:32:23;;;;;;;7.50;3.05;;;;;;;;;;10297221;28;20068;-67
2022/09/24 01:37:30;;;;;;;4.07;3.03;;;;;;;;;;10284452;28;20068;-65
2022/09/24 01:42:30;;;;;;;4.63;2.78;;;;;;;;;;10287807;28;20466;-66
2022/09/24 01:47:31;;;;;;;5.55;2.90;;;;;;;;;;10284693;28;20069;-66
2022/09/24 01:52:35;;;;;;;3.60;3.30;;;;;;;;;;10283107;28;20068;-66
2022/09/24 01:57:37;;;;;;;4.45;3.90;;;;;;;;;;10282577;28;20076;-66
2022/09/24 02:02:41;;;;;;;3.85;2.88;;;;;;;;;;10281674;28;20080;-66
2022/09/24 02:07:42;;;;;;;3.67;3.30;;;;;;;;;;10280157;28;20076;-65
2022/09/24 02:12:42;;;;;;;5.43;3.28;;;;;;;;;;10294239;28;20064;-66
2022/09/24 02:17:45;;;;;;;10.10;3.63;;;;;;;;;;10282182;28;20466;-67
2022/09/24 02:22:44;;;;;;;3.63;3.15;;;;;;;;;;10282569;28;20072;-66
2022/09/24 02:27:43;;;;;;;7.20;3.33;;;;;;;;;;10281734;28;20175;-66
2022/09/24 02:32:43;;;;;;;4.13;3.35;;;;;;;;;;10283010;28;20045;-66
2022/09/24 02:37:43;;;;;;;4.75;3.95;;;;;;;;;;10282071;28;20456;-66
2022/09/24 02:42:42;;;;;;;3.38;3.10;;;;;;;;;;10294396;28;20064;-66
2022/09/24 02:47:42;;;;;;;8.35;3.88;;;;;;;;;;10281667;28;20815;-66
2022/09/24 02:52:40;;;;;;;4.65;4.10;;;;;;;;;;10281627;28;20047;-65
2022/09/24 02:57:38;;;;;;;4.75;4.00;;;;;;;;;;10292711;28;20091;-66
2022/09/24 03:02:36;;;;;;;4.30;3.90;;;;;;;;;;10280773;28;20069;-65
2022/09/24 03:07:36;;;;;;;5.20;4.38;;;;;;;;;;10281073;28;20063;-65
2022/09/24 03:12:34;;;;;;;6.95;3.75;;;;;;;;;;10281158;28;20068;-66
2022/09/24 03:17:32;;;;;;;7.68;4.63;;;;;;;;;;10281395;28;20073;-66
2022/09/24 03:22:31;;;;;;;7.10;4.88;;;;;;;;;;10280278;28;20060;-66
2022/09/24 03:27:30;;;;;;;4.68;3.67;;;;;;;;;;10279893;28;20036;-66
2022/09/24 03:32:32;;;;;;;7.97;4.13;;;;;;;;;;10280862;28;20064;-65
2022/09/24 03:37:32;;;;;;;7.10;3.85;;;;;;;;;;10279873;28;20076;-65
2022/09/24 03:42:32;;;;;;;5.13;4.18;;;;;;;;;;10280074;28;20076;-66
2022/09/24 03:47:31;;;;;;;5.55;4.32;;;;;;;;;;10280100;28;20060;-65
2022/09/24 03:52:29;;;;;;;6.70;4.80;;;;;;;;;;10279555;28;20072;-66
2022/09/24 03:57:27;;;;;;;4.15;3.75;;;;;;;;;;10279276;28;20120;-65
2022/09/24 04:02:27;;;;;;;7.65;4.07;;;;;;;;;;10277269;28;20493;-65
2022/09/24 04:07:25;;;;;;;5.97;4.60;;;;;;;;;;10277921;28;20064;-66
2022/09/24 04:12:24;;;;;;;5.82;4.53;;;;;;;;;;10280020;28;20069;-66
2022/09/24 04:17:22;;;;;;;5.63;4.93;;;;;;;;;;10278391;28;20080;-64
2022/09/24 04:22:21;;;;;;;6.03;4.25;;;;;;;;;;10278099;28;20061;-65
2022/09/24 04:27:20;;;;;;;5.53;4.80;;;;;;;;;;10279374;28;20525;-65
2022/09/24 04:32:18;;;;;;;6.07;4.35;;;;;;;;;;10278451;28;20080;-65
2022/09/24 04:37:17;;;;;;;5.53;4.57;;;;;;;;;;10277948;28;20081;-66
2022/09/24 04:42:20;;;;;;;4.97;4.40;;;;;;;;;;10278447;28;20079;-65
2022/09/24 04:47:18;;;;;;;5.85;4.55;;;;;;;;;;10279129;28;20069;-66
2022/09/24 04:52:17;;;;;;;5.55;4.50;;;;;;;;;;10278281;28;20076;-66
2022/09/24 04:57:15;;;;;;;13.48;5.13;;;;;;;;;;10277454;28;20072;-65
2022/09/24 05:02:15;;;;;;;10.18;7.80;;;;;;;;;;10275652;28;20084;-66
2022/09/24 05:07:14;;;;;;;16.45;10.90;;;;;;;;;;10282843;28;20064;-65
2022/09/24 05:12:13;;;;;;;6.65;5.10;;;;;;;;;;10285450;28;20075;-66
2022/09/24 05:17:11;;;;;;;12.45;5.07;;;;;;;;;;10285372;28;20068;-65
2022/09/24 05:22:10;;;;;;;7.72;4.82;;;;;;;;;;10284358;28;20048;-66
2022/09/24 05:27:09;;;;;;;10.60;4.68;;;;;;;;;;10285210;28;20087;-66
2022/09/24 05:32:08;;;;;;;5.35;4.85;;;;;;;;;;10284308;28;20071;-66
2022/09/24 05:37:07;;;;;;;6.50;5.03;;;;;;;;;;10282921;28;20128;-66
2022/09/24 05:42:07;;;;;;;5.85;4.65;;;;;;;;;;10290916;28;20494;-66
2022/09/24 05:47:05;;;;;;;6.38;5.43;;;;;;;;;;10300578;28;20514;-65
2022/09/24 05:52:03;;;;;;;6.60;5.05;;;;;;;;;;10284458;28;20045;-66
2022/09/24 05:57:01;;;;;;;5.85;5.15;;;;;;;;;;10294052;28;20068;-65
2022/09/24 06:02:01;;;;;;;5.95;5.45;;;;;;;;;;10285425;28;20060;-65
2022/09/24 06:06:59;;;;;;;5.65;4.80;;;;;;;;;;10282280;28;20099;-66
2022/09/24 06:11:57;;;;;;;8.13;6.40;;;;;;;;;;10283565;28;20083;-65
2022/09/24 06:16:56;;;;;;;5.03;4.53;;;;;;;;;;10284204;28;20069;-64
2022/09/24 06:21:57;;;;;;;5.93;4.68;;;;;;;;;;10284991;28;20076;-66
2022/09/24 06:26:56;;;;;;;5.28;4.78;;;;;;;;;;10282686;28;20076;-66
2022/09/24 06:31:54;;;;;;;5.65;5.05;;;;;;;;;;10283114;28;20506;-65
2022/09/24 06:36:53;;;;;;;5.43;4.85;;;;;;;;;;10286270;28;20076;-65
2022/09/24 06:41:53;;;;;;;9.07;5.80;;;;;;;;;;10284196;28;20172;-67
2022/09/24 06:46:52;;;;;;;7.18;5.38;;;;;;;;;;10280445;28;20506;-67
2022/09/24 06:51:53;;;;;;;6.95;5.32;;;;;;;;;;10291631;28;20079;-66
2022/09/24 06:56:53;;;;;;;5.32;4.82;;;;;;;;;;10282968;28;20079;-66
2022/09/24 07:01:51;;;;;;;6.28;4.60;;;;;;;;;;10291055;28;20079;-66
2022/09/24 07:12:07;;;;;;;6.83;6.20;;;;;;;;;;10268459;28;20087;-66
2022/09/24 07:17:05;;;;;;;6.03;5.43;;;;;;;;;;10291230;28;20806;-65
2022/09/24 07:22:04;;;;;;;6.68;5.57;;;;;;;;;;10285475;28;20095;-65
2022/09/24 07:27:04;;;;;;;6.95;5.50;;;;;;;;;;10290024;28;20754;-65
2022/09/24 07:32:04;;;;;;;6.43;5.82;;;;;;;;;;10280824;28;20505;-65
2022/09/24 07:37:02;;;;;;;7.80;5.80;;;;;;;;;;10274113;28;20080;-65
2022/09/24 07:42:01;;;;;;;8.35;6.30;;;;;;;;;;10280097;28;20079;-69
2022/09/24 07:46:59;;;;;;;9.07;7.43;;;;;;;;;;10280471;28;20060;-70
2022/09/24 07:51:59;;;;;;;8.18;5.50;;;;;;;;;;10285879;28;20509;-69
2022/09/24 07:56:57;;;;;;;16.38;12.25;;;;;;;;;;10281338;28;20068;-69
2022/09/24 08:01:56;;;;;;;6.85;5.47;;;;;;;;;;10280780;28;20076;-70
2022/09/24 08:06:55;;;;;;;9.75;6.55;;;;;;;;;;10280815;28;20065;-71
2022/09/24 08:11:55;;;;;;;8.23;5.63;;;;;;;;;;10278986;28;20063;-71
2022/09/24 08:16:53;;;;;;;12.32;9.40;;;;;;;;;;10285724;28;20081;-71
2022/09/24 08:21:52;;;;;;;7.75;6.00;;;;;;;;;;10285470;28;20079;-69
2022/09/24 08:26:51;;;;;;;5.57;4.47;;;;;;;;;;10281169;28;20091;-70
2022/09/24 08:31:50;;;;;;;5.22;4.72;;;;;;;;;;10279662;28;20081;-71
2022/09/24 08:36:49;;;;;;;6.35;5.75;;;;;;;;;;10282266;28;20098;-70
2022/09/24 08:41:52;;;;;;;6.15;5.00;;;;;;;;;;10289891;28;20068;-70
2022/09/24 08:52:15;;;;;;;7.90;4.40;;;;;;;;;;10304751;28;20060;-68
2022/09/24 08:57:14;;;;;;;5.50;4.37;;;;;;;;;;10288567;28;20076;-67
2022/09/24 09:02:20;;;;;;;8.23;4.90;;;;;;;;;;10299111;28;20068;-68
2022/09/24 09:07:21;;;;;;;6.82;3.60;;;;;;;;;;10293101;28;20313;-68
2022/09/24 09:12:23;;;;;;;3.80;3.47;;;;;;;;;;10280000;28;20076;-68
2022/09/24 09:17:28;;;;;;;4.43;3.38;;;;;;;;;;10286578;28;20084;-68
2022/09/24 09:22:29;;;;;;;4.50;3.10;;;;;;;;;;10285317;28;20133;-69
2022/09/24 09:27:28;;;;;;;15.98;10.55;;;;;;;;;;10285403;28;20517;-68
2022/09/24 09:32:38;;;;;;;6.57;4.55;;;;;;;;;;10279554;28;20072;-67
2022/09/24 09:37:40;;;;;;;8.52;3.90;;;;;;;;;;10294080;28;20067;-64
2022/09/24 09:42:43;;;;;;;4.97;4.43;;;;;;;;;;10285651;28;20068;-65
2022/09/24 09:47:45;;;;;;;3.67;3.00;;;;;;;;;;10297075;28;20079;-64
2022/09/24 09:52:43;;;;;;;5.97;4.85;;;;;;;;;;10285375;28;20083;-64
2022/09/24 09:57:41;;;;;;;3.50;2.45;;;;;;;;;;10289431;28;20463;-66
2022/09/24 10:02:43;;;;;;;4.63;2.75;;;;;;;;;;10289218;28;20076;-66
2022/09/24 10:07:45;;;;;;;6.28;3.15;;;;;;;;;;10291961;28;20072;-66
2022/09/24 10:12:43;;;;;;;4.10;3.22;;;;;;;;;;10281383;28;20072;-68
2022/09/24 10:17:42;;;;;;;3.22;2.55;;;;;;;;;;10284816;28;20194;-69
2022/09/24 10:22:46;;;;;;;4.20;2.63;;;;;;;;;;10287767;28;20140;-71
2022/09/24 10:27:48;;;;;;;4.30;3.90;;;;;;;;;;10287155;28;20061;-68
2022/09/24 10:32:55;;;;;;;4.10;2.28;;;;;;;;;;10280936;28;20491;-69
2022/09/24 10:37:54;;;;;;;3.30;2.70;;;;;;;;;;10277879;28;20447;-68
2022/09/24 10:42:57;;;;;;;3.03;2.40;;;;;;;;;;10289094;28;20079;-68
2022/09/24 10:48:02;;;;;;;3.30;2.08;;;;;;;;;;10281780;28;20048;-69
2022/09/24 10:53:00;;;;;;;;;;;;;;;;;;10283772;28;20076;-69
2022/09/24 10:58:02;;;;;;;2.80;2.38;;;;;;;;;;10288625;28;20603;-69
2022/09/24 11:03:10;;;;;;;3.17;2.88;;;;;;;;;;10279328;28;20081;-69
2022/09/24 11:08:14;;;;;;;2.53;2.33;;;;;;;;;;10287201;28;20065;-69
2022/09/24 11:13:18;;;;;;;8.00;3.23;;;;;;;;;;10285723;28;20064;-69
2022/09/24 11:18:25;;;;;;;4.40;2.20;;;;;;;;;;10279112;28;20466;-69
2022/09/24 11:23:33;;;;;;;5.15;2.40;;;;;;;;;;10274902;28;20076;-70
2022/09/24 11:28:42;;;;;;;2.17;1.90;;;;;;;;;;10277240;28;20076;-69
2022/09/24 11:33:51;;;;;;;2.88;2.47;;;;;;;;;;10277107;28;20076;-68
2022/09/24 11:38:58;;;;;;;2.75;1.90;;;;;;;;;;10272013;28;20072;-69
2022/09/24 11:44:10;;;;;;;3.45;2.90;;;;;;;;;;10277483;28;20475;-70
2022/09/24 11:49:14;;;;;;;4.95;3.10;;;;;;;;;;10274749;28;20517;-69
2022/09/24 11:54:16;;;;;;;4.72;2.33;;;;;;;;;;10280388;28;20081;-69
2022/09/24 11:59:19;;;;;;;3.10;2.40;;;;;;;;;;10277880;28;20079;-69
2022/09/24 12:04:21;;;;;;;2.83;2.33;;;;;;;;;;10281227;28;20065;-70
2022/09/24 12:09:23;;;;;;;4.57;2.50;;;;;;;;;;10275350;28;20041;-69
2022/09/24 12:14:25;;;;;;;2.60;2.17;;;;;;;;;;10288730;28;20067;-69
2022/09/24 12:19:25;;;;;;;2.38;2.08;;;;;;;;;;10300727;28;20084;-68
2022/09/24 12:24:28;;;;;;;4.57;2.20;;;;;;;;;;10284778;28;20849;-69
2022/09/24 12:34:54;;;;;;;2.17;1.98;;;;;;;;;;10288121;28;20087;-70
2022/09/24 12:39:56;;;;;;;7.57;2.83;;;;;;;;;;10291170;28;20088;-68
2022/09/24 12:44:59;;;;;;;3.67;2.53;;;;;;;;;;10283680;28;20132;-67
2022/09/24 12:49:59;;;;;;;5.22;2.80;;;;;;;;;;10290970;28;20087;-68
2022/09/24 12:54:59;;;;;;;7.03;3.80;;;;;;;;;;10285020;28;20061;-69
2022/09/24 13:00:00;;;;;;;4.05;3.38;;;;;;;;;;10297484;28;20072;-69
2022/09/24 13:05:18;;;;;;;8.07;3.17;;;;;;;;;;10288709;28;20045;-69
2022/09/24 13:10:22;;;;;;;4.28;2.63;;;;;;;;;;10287349;28;20060;-68
2022/09/24 13:15:27;;;;;;;3.08;2.63;;;;;;;;;;10284974;28;20482;-69
2022/09/24 13:20:25;;;;;;;2.42;2.22;;;;;;;;;;10280957;28;20076;-69
2022/09/24 13:25:24;;;;;;;3.28;2.55;;;;;;;;;;10287971;28;20490;-70
2022/09/24 13:30:31;;;;;;;3.60;3.15;;;;;;;;;;10287079;28;20159;-68
2022/09/24 13:35:32;;;;;;;12.60;9.75;;;;;;;;;;10287497;28;20346;-70
2022/09/24 13:40:33;;;;;;;3.40;2.65;;;;;;;;;;10282998;28;20076;-68
2022/09/24 13:45:33;;;;;;;7.05;2.92;;;;;;;;;;10283480;28;20498;-67
2022/09/24 13:50:33;;;;;;;4.68;3.38;;;;;;;;;;10286299;28;20076;-67
2022/09/24 13:55:34;;;;;;;2.85;2.40;;;;;;;;;;10296914;28;20072;-68
2022/09/24 14:00:37;;;;;;;4.68;3.35;;;;;;;;;;10279030;28;20088;-69
2022/09/24 14:05:35;;;;;;;4.70;3.85;;;;;;;;;;10292142;28;20037;-68
2022/09/24 14:10:34;;;;;;;3.10;2.80;;;;;;;;;;10276989;28;20086;-69
2022/09/24 14:15:35;;;;;;;6.15;2.95;;;;;;;;;;10275041;28;20513;-69
2022/09/24 14:20:35;;;;;;;6.80;5.00;;;;;;;;;;10276863;28;20080;-69
2022/09/24 14:25:34;;;;;;;10.88;4.90;;;;;;;;;;10280801;28;20076;-69
2022/09/24 14:30:38;;;;;;;16.50;7.97;;;;;;;;;;10282500;28;20067;-68
2022/09/24 14:35:37;;;;;;;4.45;2.97;;;;;;;;;;10283695;28;20525;-68
2022/09/24 14:40:40;;;;;;;8.52;3.10;;;;;;;;;;10281190;28;20075;-67
2022/09/24 14:45:40;;;;;;;3.78;3.13;;;;;;;;;;10285383;28;20075;-68
2022/09/24 14:50:40;;;;;;;3.78;2.80;;;;;;;;;;10283845;28;20418;-68
2022/09/24 14:55:38;;;;;;;4.32;3.53;;;;;;;;;;10287779;28;20111;-67
2022/09/24 15:00:47;;;;;;;3.00;2.33;;;;;;;;;;10287300;28;20072;-69
2022/09/24 15:05:46;;;;;;;6.88;2.40;;;;;;;;;;10280015;28;20075;-68
2022/09/24 15:10:51;;;;;;;3.35;3.05;;;;;;;;;;10280359;28;20079;-69
2022/09/24 15:16:01;;;;;;;2.90;2.60;;;;;;;;;;10299342;28;20084;-68
2022/09/24 15:21:02;;;;;;;3.42;2.58;;;;;;;;;;10293030;28;20083;-69
2022/09/24 15:26:00;;;;;;;9.02;3.20;;;;;;;;;;10280486;28;20095;-69
2022/09/24 15:31:00;;;;;;;5.93;4.32;;;;;;;;;;10277803;28;20456;-68
2022/09/24 15:35:58;;;;;;;4.70;3.20;;;;;;;;;;10281014;28;20075;-69
2022/09/24 15:40:59;;;;;;;5.05;4.50;;;;;;;;;;10281898;28;20064;-68
2022/09/24 15:45:57;;;;;;;5.07;4.07;;;;;;;;;;10280747;28;20080;-69
2022/09/24 15:50:57;;;;;;;10.25;4.93;;;;;;;;;;10281523;28;20061;-69
2022/09/24 15:55:59;;;;;;;9.68;5.55;;;;;;;;;;10281661;28;20503;-67
2022/09/24 16:00:57;;;;;;;5.72;5.13;;;;;;;;;;10282984;28;20096;-67
2022/09/24 16:05:58;;;;;;;11.02;6.38;;;;;;;;;;10278578;28;20065;-69
2022/09/24 16:10:56;;;;;;;10.32;5.45;;;;;;;;;;10282895;28;20540;-68
2022/09/24 16:15:54;;;;;;;8.80;3.38;;;;;;;;;;10285386;28;20538;-67
2022/09/24 16:20:53;;;;;;;4.28;3.28;;;;;;;;;;10277019;28;20076;-69
2022/09/24 16:25:56;;;;;;;12.00;4.05;;;;;;;;;;10274154;28;20080;-69
2022/09/24 16:30:54;;;;;;;5.00;3.40;;;;;;;;;;10287734;28;20168;-68
2022/09/24 16:35:52;;;;;;;4.93;3.20;;;;;;;;;;10274244;28;20075;-69
2022/09/24 16:40:59;;;;;;;3.60;3.10;;;;;;;;;;10273989;28;20045;-68
2022/09/24 16:46:00;;;;;;;4.25;3.55;;;;;;;;;;10281345;28;19952;-68
2022/09/24 16:51:02;;;;;;;6.13;3.67;;;;;;;;;;10278339;28;20439;-68
2022/09/24 16:56:09;;;;;;;4.75;3.58;;;;;;;;;;10284780;28;20068;-68
2022/09/24 17:01:09;;;;;;;4.40;3.72;;;;;;;;;;10286262;28;20064;-67
2022/09/24 17:06:08;;;;;;;8.43;4.53;;;;;;;;;;10287210;28;20516;-68
2022/09/24 17:11:07;;;;;;;6.32;4.55;;;;;;;;;;10295458;28;20083;-69
2022/09/24 17:16:05;;;;;;;10.80;4.25;;;;;;;;;;10287911;28;20080;-69
2022/09/24 17:21:05;;;;;;;11.23;5.13;;;;;;;;;;10288082;28;20084;-69
2022/09/24 17:26:03;;;;;;;9.88;4.60;;;;;;;;;;10287589;28;20593;-69
2022/09/24 17:31:04;;;;;;;7.97;4.28;;;;;;;;;;10289052;28;20065;-69
2022/09/24 17:36:03;;;;;;;7.63;4.88;;;;;;;;;;10287739;28;20088;-68
2022/09/24 17:41:02;;;;;;;9.68;5.57;;;;;;;;;;10282846;28;20071;-69
2022/09/24 17:46:02;;;;;;;6.60;4.85;;;;;;;;;;10285641;28;20542;-68
2022/09/24 17:51:04;;;;;;;7.55;4.28;;;;;;;;;;10287034;28;20060;-69
2022/09/24 17:56:03;;;;;;;6.13;4.43;;;;;;;;;;10288098;28;20087;-70
2022/09/24 18:01:03;;;;;;;25.17;20.88;;;;;;;;;;10295420;28;20064;-69
2022/09/24 18:06:04;;;;;;;10.02;7.78;;;;;;;;;;10284509;28;20068;-69
2022/09/24 18:11:06;;;;;;;33.45;30.08;;;;;;;;;;10284708;28;20072;-70
2022/09/24 18:16:13;;;;;;;10.68;8.38;;;;;;;;;;10285730;28;20083;-69
2022/09/24 18:21:14;;;;;;;10.25;5.05;;;;;;;;;;10284742;28;20064;-68
2022/09/24 18:26:13;;;;;;;7.45;4.20;;;;;;;;;;10287235;28;20084;-68
2022/09/24 18:31:11;;;;;;;6.50;4.70;;;;;;;;;;10288627;28;20174;-68
2022/09/24 18:36:11;;;;;;;15.60;11.77;;;;;;;;;;10282207;28;20544;-68
2022/09/24 18:41:11;;;;;;;46.03;24.70;;;;;;;;;;10284989;28;20068;-68
2022/09/24 18:46:12;;;;;;;22.38;11.20;;;;;;;;;;10284731;28;20068;-68
2022/09/24 18:51:15;;;;;;;6.15;4.97;;;;;;;;;;10279799;28;20045;-69
2022/09/24 18:56:14;;;;;;;7.32;4.63;;;;;;;;;;10281644;28;20076;-69
2022/09/24 19:01:14;;;;;;;5.03;4.35;;;;;;;;;;10286346;28;20040;-68
2022/09/24 19:06:13;;;;;;;4.63;3.97;;;;;;;;;;10279450;28;20080;-68
2022/09/24 19:11:12;;;;;;;5.20;3.83;;;;;;;;;;10282643;28;20528;-68
2022/09/24 19:16:17;;;;;;;8.18;4.32;;;;;;;;;;10284160;28;20087;-69
2022/09/24 19:21:19;;;;;;;6.00;4.53;;;;;;;;;;10281998;28;20060;-67
2022/09/24 19:26:25;;;;;;;5.18;4.57;;;;;;;;;;10280190;28;20116;-69
2022/09/24 19:31:28;;;;;;;5.78;4.68;;;;;;;;;;10280036;28;20063;-68
2022/09/24 19:36:27;;;;;;;4.95;4.07;;;;;;;;;;10302948;28;20064;-68
2022/09/24 19:41:26;;;;;;;6.50;3.80;;;;;;;;;;10286231;28;20461;-69
2022/09/24 19:46:30;;;;;;;4.45;3.60;;;;;;;;;;10284786;28;20068;-71
2022/09/24 19:51:34;;;;;;;4.03;3.35;;;;;;;;;;10276393;28;20456;-68
2022/09/24 19:56:32;;;;;;;4.13;3.70;;;;;;;;;;10283374;28;20068;-68
2022/09/24 20:01:32;;;;;;;4.15;3.67;;;;;;;;;;10276159;28;20510;-68
2022/09/24 20:06:32;;;;;;;4.85;3.65;;;;;;;;;;10294494;28;20069;-69
2022/09/24 20:11:31;;;;;;;3.60;3.13;;;;;;;;;;10289225;28;20057;-69
2022/09/24 20:16:31;;;;;;;4.65;3.30;;;;;;;;;;10285607;28;20053;-69
2022/09/24 20:21:33;;;;;;;3.58;3.28;;;;;;;;;;10281805;28;20069;-69
2022/09/24 20:31:51;;;;;;;8.80;3.17;;;;;;;;;;10277915;28;20072;-68
2022/09/24 20:36:51;;;;;;;3.72;3.05;;;;;;;;;;10289396;28;20079;-69
2022/09/24 20:41:49;;;;;;;5.63;2.92;;;;;;;;;;10298034;28;20194;-68
2022/09/24 20:46:48;;;;;;;3.38;3.03;;;;;;;;;;10292687;28;20092;-68
2022/09/24 20:51:46;;;;;;;3.45;2.97;;;;;;;;;;10291280;28;20114;-69
2022/09/24 20:56:51;;;;;;;6.32;3.13;;;;;;;;;;10290488;28;20076;-68
2022/09/24 21:01:49;;;;;;;3.10;2.70;;;;;;;;;;10288117;28;20068;-67
2022/09/24 21:06:48;;;;;;;7.93;3.17;;;;;;;;;;10289788;28;20071;-68
2022/09/24 21:11:49;;;;;;;3.85;3.22;;;;;;;;;;10288918;28;20505;-67
2022/09/24 21:16:49;;;;;;;4.45;2.75;;;;;;;;;;10292354;28;20083;-68
2022/09/24 21:21:47;;;;;;;4.45;2.88;;;;;;;;;;10292688;28;20110;-68
2022/09/24 21:26:45;;;;;;;9.15;2.88;;;;;;;;;;10293400;28;20073;-68
2022/09/24 21:31:44;;;;;;;4.15;2.88;;;;;;;;;;10299165;28;20072;-68
2022/09/24 21:36:45;;;;;;;4.35;3.25;;;;;;;;;;10303496;28;20077;-67
2022/09/24 21:41:44;;;;;;;6.75;3.00;;;;;;;;;;10288683;28;20072;-67
2022/09/24 21:46:42;;;;;;;3.95;2.72;;;;;;;;;;10288056;28;20099;-68
2022/09/24 21:51:42;;;;;;;3.72;2.65;;;;;;;;;;10287318;28;20069;-68
2022/09/24 21:56:41;;;;;;;2.88;2.67;;;;;;;;;;10286793;28;20045;-68
2022/09/24 22:01:40;;;;;;;6.80;2.50;;;;;;;;;;10293597;28;20066;-69
2022/09/24 22:06:38;;;;;;;4.25;2.83;;;;;;;;;;10287569;28;20080;-69
2022/09/24 22:11:37;;;;;;;3.60;2.80;;;;;;;;;;10285229;28;20045;-69
2022/09/24 22:16:36;;;;;;;5.38;2.75;;;;;;;;;;10288119;28;20071;-69
2022/09/24 22:21:35;;;;;;;3.78;2.55;;;;;;;;;;10293636;28;20072;-69
2022/09/24 22:26:33;;;;;;;2.47;2.28;;;;;;;;;;10293996;28;20076;-69
2022/09/24 22:31:32;;;;;;;2.60;2.40;;;;;;;;;;10285968;28;20487;-69
2022/09/24 22:36:32;;;;;;;2.90;2.60;;;;;;;;;;10290643;28;20045;-68
2022/09/24 22:41:31;;;;;;;4.25;2.78;;;;;;;;;;10284479;28;20091;-69
2022/09/24 22:46:30;;;;;;;3.42;2.65;;;;;;;;;;10285884;28;20495;-70
2022/09/24 22:51:29;;;;;;;3.28;2.63;;;;;;;;;;10297715;28;20047;-69
2022/09/24 22:56:29;;;;;;;3.58;2.63;;;;;;;;;;10284916;28;20494;-69
2022/09/24 23:01:29;;;;;;;7.15;2.75;;;;;;;;;;10284184;28;20090;-69
2022/09/24 23:06:29;;;;;;;2.50;2.30;;;;;;;;;;10284754;28;20068;-68
2022/09/24 23:11:28;;;;;;;2.88;2.45;;;;;;;;;;10283031;28;20067;-68
2022/09/24 23:16:29;;;;;;;2.97;2.50;;;;;;;;;;10283964;28;20063;-68
2022/09/24 23:21:29;;;;;;;3.28;2.50;;;;;;;;;;10284843;28;20066;-68
2022/09/24 23:26:28;;;;;;;3.22;2.65;;;;;;;;;;10284184;28;20078;-68
2022/09/24 23:31:29;;;;;;;5.15;2.47;;;;;;;;;;10283204;28;20102;-68
2022/09/24 23:36:29;;;;;;;3.72;2.60;;;;;;;;;;10284645;28;20083;-67
2022/09/24 23:41:27;;;;;;;2.60;2.35;;;;;;;;;;10282990;28;20064;-68
2022/09/24 23:46:26;;;;;;;3.28;2.40;;;;;;;;;;10281918;28;20518;-68
2022/09/24 23:51:26;;;;;;;3.10;2.63;;;;;;;;;;10282922;28;20068;-69
2022/09/24 23:56:24;;;;;;;3.78;2.63;;;;;;;;;;10282551;28;20088;-68
